sensor_id;sensor_type;location;lat;lon;timestamp;temperature;humidity
28767;DHT22;15921;52.034;20.650;2023-04-19T00:01:25;10.50;99.90
28767;DHT22;15921;52.034;20.650;2023-04-19T00:03:53;10.50;99.90
28767;DHT22;15921;52.034;20.650;2023-04-19T00:06:19;10.40;99.90
28767;DHT22;15921;52.034;20.650;2023-04-19T00:08:45;10.40;99.90
28767;DHT22;15921;52.034;20.650;2023-04-19T00:11:11;10.30;99.90
28767;DHT22;15921;52.034;20.650;2023-04-19T00:13:37;10.40;99.90
28767;DHT22;15921;52.034;20.650;2023-04-19T00:16:03;10.30;99.90
28767;DHT22;15921;52.034;20.650;2023-04-19T00:18:29;10.30;99.90
28767;DHT22;15921;52.034;20.650;2023-04-19T00:20:54;10.30;99.90
28767;DHT22;15921;52.034;20.650;2023-04-19T00:23:21;10.30;99.90
28767;DHT22;15921;52.034;20.650;2023-04-19T00:25:48;10.20;99.90
28767;DHT22;15921;52.034;20.650;2023-04-19T00:28:14;10.20;99.90
28767;DHT22;15921;52.034;20.650;2023-04-19T00:30:40;10.20;99.90
28767;DHT22;15921;52.034;20.650;2023-04-19T00:33:06;10.10;99.90
28767;DHT22;15921;52.034;20.650;2023-04-19T00:35:39;10.00;99.90
28767;DHT22;15921;52.034;20.650;2023-04-19T00:38:06;9.90;99.90
28767;DHT22;15921;52.034;20.650;2023-04-19T00:40:32;9.80;99.90
28767;DHT22;15921;52.034;20.650;2023-04-19T00:42:58;9.70;99.90
28767;DHT22;15921;52.034;20.650;2023-04-19T00:45:24;9.50;99.90
28767;DHT22;15921;52.034;20.650;2023-04-19T00:47:50;9.40;99.90
28767;DHT22;15921;52.034;20.650;2023-04-19T00:50:16;9.30;99.90
28767;DHT22;15921;52.034;20.650;2023-04-19T00:52:43;9.20;99.90
28767;DHT22;15921;52.034;20.650;2023-04-19T00:55:09;9.20;99.90
28767;DHT22;15921;52.034;20.650;2023-04-19T00:57:36;9.10;99.90
28767;DHT22;15921;52.034;20.650;2023-04-19T01:00:02;9.10;99.90
28767;DHT22;15921;52.034;20.650;2023-04-19T01:02:31;9.10;99.90
28767;DHT22;15921;52.034;20.650;2023-04-19T01:04:57;9.10;99.90
28767;DHT22;15921;52.034;20.650;2023-04-19T01:07:22;9.10;99.90
28767;DHT22;15921;52.034;20.650;2023-04-19T01:09:48;9.10;99.90
28767;DHT22;15921;52.034;20.650;2023-04-19T01:12:14;9.10;99.90
28767;DHT22;15921;52.034;20.650;2023-04-19T01:14:40;9.10;99.90
28767;DHT22;15921;52.034;20.650;2023-04-19T01:17:06;9.10;99.90
28767;DHT22;15921;52.034;20.650;2023-04-19T01:19:32;9.10;99.90
28767;DHT22;15921;52.034;20.650;2023-04-19T01:21:59;9.00;99.90
28767;DHT22;15921;52.034;20.650;2023-04-19T01:24:27;9.00;99.90
28767;DHT22;15921;52.034;20.650;2023-04-19T01:26:53;9.00;99.90
28767;DHT22;15921;52.034;20.650;2023-04-19T01:29:18;9.00;99.90
28767;DHT22;15921;52.034;20.650;2023-04-19T01:31:47;9.00;99.90
28767;DHT22;15921;52.034;20.650;2023-04-19T01:34:16;9.00;99.90
28767;DHT22;15921;52.034;20.650;2023-04-19T01:36:41;9.00;99.90
28767;DHT22;15921;52.034;20.650;2023-04-19T01:39:07;8.90;99.90
28767;DHT22;15921;52.034;20.650;2023-04-19T01:41:33;8.80;99.90
28767;DHT22;15921;52.034;20.650;2023-04-19T01:43:58;8.80;99.90
28767;DHT22;15921;52.034;20.650;2023-04-19T01:46:25;8.70;99.90
28767;DHT22;15921;52.034;20.650;2023-04-19T01:48:51;8.70;99.90
28767;DHT22;15921;52.034;20.650;2023-04-19T01:51:16;8.50;99.90
28767;DHT22;15921;52.034;20.650;2023-04-19T01:53:42;8.50;99.90
28767;DHT22;15921;52.034;20.650;2023-04-19T01:56:08;8.40;99.90
28767;DHT22;15921;52.034;20.650;2023-04-19T01:58:34;8.40;99.90
28767;DHT22;15921;52.034;20.650;2023-04-19T02:01:00;8.40;99.90
28767;DHT22;15921;52.034;20.650;2023-04-19T02:03:25;8.40;99.90
28767;DHT22;15921;52.034;20.650;2023-04-19T02:05:51;8.40;99.90
28767;DHT22;15921;52.034;20.650;2023-04-19T02:08:16;8.50;99.90
28767;DHT22;15921;52.034;20.650;2023-04-19T02:10:42;8.50;99.90
28767;DHT22;15921;52.034;20.650;2023-04-19T02:13:08;8.60;99.90
28767;DHT22;15921;52.034;20.650;2023-04-19T02:15:35;8.60;99.90
28767;DHT22;15921;52.034;20.650;2023-04-19T02:18:01;8.60;99.90
28767;DHT22;15921;52.034;20.650;2023-04-19T02:20:31;8.60;99.90
28767;DHT22;15921;52.034;20.650;2023-04-19T02:22:56;8.60;99.90
28767;DHT22;15921;52.034;20.650;2023-04-19T02:25:22;8.60;99.90
28767;DHT22;15921;52.034;20.650;2023-04-19T02:27:48;8.70;99.90
28767;DHT22;15921;52.034;20.650;2023-04-19T02:30:13;8.70;99.90
28767;DHT22;15921;52.034;20.650;2023-04-19T02:32:39;8.70;99.90
28767;DHT22;15921;52.034;20.650;2023-04-19T02:35:05;8.70;99.90
28767;DHT22;15921;52.034;20.650;2023-04-19T02:37:31;8.70;99.90
28767;DHT22;15921;52.034;20.650;2023-04-19T02:39:57;8.70;99.90
28767;DHT22;15921;52.034;20.650;2023-04-19T02:42:23;8.80;99.90
28767;DHT22;15921;52.034;20.650;2023-04-19T02:44:48;8.80;99.90
28767;DHT22;15921;52.034;20.650;2023-04-19T02:47:14;8.80;99.90
28767;DHT22;15921;52.034;20.650;2023-04-19T02:49:40;8.90;99.90
28767;DHT22;15921;52.034;20.650;2023-04-19T02:52:07;8.80;99.90
28767;DHT22;15921;52.034;20.650;2023-04-19T02:54:33;8.80;99.90
28767;DHT22;15921;52.034;20.650;2023-04-19T02:56:59;8.80;99.90
28767;DHT22;15921;52.034;20.650;2023-04-19T02:59:25;8.70;99.90
28767;DHT22;15921;52.034;20.650;2023-04-19T03:01:51;8.70;99.90
28767;DHT22;15921;52.034;20.650;2023-04-19T03:04:17;8.70;99.90
28767;DHT22;15921;52.034;20.650;2023-04-19T03:06:43;8.60;99.90
28767;DHT22;15921;52.034;20.650;2023-04-19T03:09:09;8.60;99.90
28767;DHT22;15921;52.034;20.650;2023-04-19T03:11:35;8.60;99.90
28767;DHT22;15921;52.034;20.650;2023-04-19T03:14:01;8.50;99.90
28767;DHT22;15921;52.034;20.650;2023-04-19T03:16:27;8.50;99.90
28767;DHT22;15921;52.034;20.650;2023-04-19T03:18:54;8.50;99.90
28767;DHT22;15921;52.034;20.650;2023-04-19T03:21:20;8.50;99.90
28767;DHT22;15921;52.034;20.650;2023-04-19T03:23:46;8.40;99.90
28767;DHT22;15921;52.034;20.650;2023-04-19T03:26:12;8.40;99.90
28767;DHT22;15921;52.034;20.650;2023-04-19T03:28:37;8.40;99.90
28767;DHT22;15921;52.034;20.650;2023-04-19T03:31:03;8.40;99.90
28767;DHT22;15921;52.034;20.650;2023-04-19T03:33:29;8.40;99.90
28767;DHT22;15921;52.034;20.650;2023-04-19T03:35:54;8.40;99.90
28767;DHT22;15921;52.034;20.650;2023-04-19T03:38:20;8.40;99.90
28767;DHT22;15921;52.034;20.650;2023-04-19T03:40:47;8.40;99.90
28767;DHT22;15921;52.034;20.650;2023-04-19T03:43:12;8.40;99.90
28767;DHT22;15921;52.034;20.650;2023-04-19T03:45:38;8.50;99.90
28767;DHT22;15921;52.034;20.650;2023-04-19T03:48:04;8.40;99.90
28767;DHT22;15921;52.034;20.650;2023-04-19T03:50:30;8.40;99.90
28767;DHT22;15921;52.034;20.650;2023-04-19T03:52:55;8.40;99.90
28767;DHT22;15921;52.034;20.650;2023-04-19T03:55:21;8.40;99.90
28767;DHT22;15921;52.034;20.650;2023-04-19T03:57:47;8.40;99.90
28767;DHT22;15921;52.034;20.650;2023-04-19T04:00:13;8.40;99.90
28767;DHT22;15921;52.034;20.650;2023-04-19T04:02:38;8.40;99.90
28767;DHT22;15921;52.034;20.650;2023-04-19T04:05:05;8.50;99.90
28767;DHT22;15921;52.034;20.650;2023-04-19T04:07:31;8.50;99.90
28767;DHT22;15921;52.034;20.650;2023-04-19T04:09:57;8.50;99.90
28767;DHT22;15921;52.034;20.650;2023-04-19T04:12:22;8.40;99.90
28767;DHT22;15921;52.034;20.650;2023-04-19T04:14:48;8.50;99.90
28767;DHT22;15921;52.034;20.650;2023-04-19T04:17:14;8.50;99.90
28767;DHT22;15921;52.034;20.650;2023-04-19T04:19:39;8.50;99.90
28767;DHT22;15921;52.034;20.650;2023-04-19T04:22:05;8.50;99.90
28767;DHT22;15921;52.034;20.650;2023-04-19T04:24:37;8.40;99.90
28767;DHT22;15921;52.034;20.650;2023-04-19T04:27:03;8.40;99.90
28767;DHT22;15921;52.034;20.650;2023-04-19T04:29:28;8.40;99.90
28767;DHT22;15921;52.034;20.650;2023-04-19T04:31:54;8.40;99.90
28767;DHT22;15921;52.034;20.650;2023-04-19T04:34:21;8.40;99.90
28767;DHT22;15921;52.034;20.650;2023-04-19T04:36:47;8.30;99.90
28767;DHT22;15921;52.034;20.650;2023-04-19T04:39:15;8.40;99.90
28767;DHT22;15921;52.034;20.650;2023-04-19T04:41:41;8.40;99.90
28767;DHT22;15921;52.034;20.650;2023-04-19T04:44:07;8.50;99.90
28767;DHT22;15921;52.034;20.650;2023-04-19T04:46:36;8.40;99.90
28767;DHT22;15921;52.034;20.650;2023-04-19T04:49:02;8.40;99.90
28767;DHT22;15921;52.034;20.650;2023-04-19T04:51:27;8.40;99.90
28767;DHT22;15921;52.034;20.650;2023-04-19T04:53:53;8.40;99.90
28767;DHT22;15921;52.034;20.650;2023-04-19T04:56:19;8.40;99.90
28767;DHT22;15921;52.034;20.650;2023-04-19T04:58:44;8.40;99.90
28767;DHT22;15921;52.034;20.650;2023-04-19T05:01:10;8.40;99.90
28767;DHT22;15921;52.034;20.650;2023-04-19T05:03:36;8.40;99.90
28767;DHT22;15921;52.034;20.650;2023-04-19T05:06:01;8.50;99.90
28767;DHT22;15921;52.034;20.650;2023-04-19T05:08:27;8.40;99.90
28767;DHT22;15921;52.034;20.650;2023-04-19T05:10:53;8.40;99.90
28767;DHT22;15921;52.034;20.650;2023-04-19T05:13:18;8.50;99.90
28767;DHT22;15921;52.034;20.650;2023-04-19T05:15:44;8.40;99.90
28767;DHT22;15921;52.034;20.650;2023-04-19T05:18:10;8.40;99.90
28767;DHT22;15921;52.034;20.650;2023-04-19T05:20:35;8.50;99.90
28767;DHT22;15921;52.034;20.650;2023-04-19T05:23:01;8.60;99.90
28767;DHT22;15921;52.034;20.650;2023-04-19T05:25:28;8.60;99.90
28767;DHT22;15921;52.034;20.650;2023-04-19T05:27:54;8.50;99.90
28767;DHT22;15921;52.034;20.650;2023-04-19T05:30:20;8.50;99.90
28767;DHT22;15921;52.034;20.650;2023-04-19T05:32:46;8.50;99.90
28767;DHT22;15921;52.034;20.650;2023-04-19T05:35:11;8.50;99.90
28767;DHT22;15921;52.034;20.650;2023-04-19T05:37:38;8.60;99.90
28767;DHT22;15921;52.034;20.650;2023-04-19T05:40:06;8.70;99.90
28767;DHT22;15921;52.034;20.650;2023-04-19T05:42:34;8.70;99.90
28767;DHT22;15921;52.034;20.650;2023-04-19T05:45:00;8.70;99.90
28767;DHT22;15921;52.034;20.650;2023-04-19T05:47:26;8.70;99.90
28767;DHT22;15921;52.034;20.650;2023-04-19T05:49:52;8.70;99.90
28767;DHT22;15921;52.034;20.650;2023-04-19T05:52:17;8.70;99.90
28767;DHT22;15921;52.034;20.650;2023-04-19T05:54:43;8.70;99.90
28767;DHT22;15921;52.034;20.650;2023-04-19T05:57:09;8.70;99.90
28767;DHT22;15921;52.034;20.650;2023-04-19T05:59:35;8.70;99.90
28767;DHT22;15921;52.034;20.650;2023-04-19T06:02:00;8.70;99.90
28767;DHT22;15921;52.034;20.650;2023-04-19T06:04:26;8.70;99.90
28767;DHT22;15921;52.034;20.650;2023-04-19T06:06:52;8.80;99.90
28767;DHT22;15921;52.034;20.650;2023-04-19T06:09:18;8.80;99.90
28767;DHT22;15921;52.034;20.650;2023-04-19T06:11:44;8.80;99.90
28767;DHT22;15921;52.034;20.650;2023-04-19T06:14:10;8.80;99.90
28767;DHT22;15921;52.034;20.650;2023-04-19T06:16:38;8.80;99.90
28767;DHT22;15921;52.034;20.650;2023-04-19T06:19:04;8.80;99.90
28767;DHT22;15921;52.034;20.650;2023-04-19T06:21:30;8.70;99.90
28767;DHT22;15921;52.034;20.650;2023-04-19T06:23:57;8.70;99.90
28767;DHT22;15921;52.034;20.650;2023-04-19T06:26:23;8.70;99.90
28767;DHT22;15921;52.034;20.650;2023-04-19T06:28:48;8.60;99.90
28767;DHT22;15921;52.034;20.650;2023-04-19T06:31:14;8.60;99.90
28767;DHT22;15921;52.034;20.650;2023-04-19T06:33:39;8.60;99.90
28767;DHT22;15921;52.034;20.650;2023-04-19T06:36:05;8.70;99.90
28767;DHT22;15921;52.034;20.650;2023-04-19T06:38:31;8.60;99.90
28767;DHT22;15921;52.034;20.650;2023-04-19T06:40:57;8.60;99.90
28767;DHT22;15921;52.034;20.650;2023-04-19T06:43:23;8.60;99.90
28767;DHT22;15921;52.034;20.650;2023-04-19T06:45:56;8.70;99.90
28767;DHT22;15921;52.034;20.650;2023-04-19T06:48:21;8.60;99.90
28767;DHT22;15921;52.034;20.650;2023-04-19T06:50:47;8.50;99.90
28767;DHT22;15921;52.034;20.650;2023-04-19T06:53:12;8.50;99.90
28767;DHT22;15921;52.034;20.650;2023-04-19T06:55:38;8.60;99.90
28767;DHT22;15921;52.034;20.650;2023-04-19T06:58:04;8.70;99.90
28767;DHT22;15921;52.034;20.650;2023-04-19T07:00:32;8.80;99.90
28767;DHT22;15921;52.034;20.650;2023-04-19T07:02:57;8.90;99.90
28767;DHT22;15921;52.034;20.650;2023-04-19T07:05:24;8.90;99.90
28767;DHT22;15921;52.034;20.650;2023-04-19T07:07:50;8.90;99.90
28767;DHT22;15921;52.034;20.650;2023-04-19T07:10:16;9.00;99.90
28767;DHT22;15921;52.034;20.650;2023-04-19T07:12:41;9.00;99.90
28767;DHT22;15921;52.034;20.650;2023-04-19T07:15:08;8.90;99.90
28767;DHT22;15921;52.034;20.650;2023-04-19T07:17:34;9.00;99.90
28767;DHT22;15921;52.034;20.650;2023-04-19T07:20:01;9.00;99.90
28767;DHT22;15921;52.034;20.650;2023-04-19T07:22:28;8.90;99.90
28767;DHT22;15921;52.034;20.650;2023-04-19T07:24:54;8.90;99.90
28767;DHT22;15921;52.034;20.650;2023-04-19T07:27:19;8.80;99.90
28767;DHT22;15921;52.034;20.650;2023-04-19T07:29:45;8.80;99.90
28767;DHT22;15921;52.034;20.650;2023-04-19T07:32:11;8.80;99.90
28767;DHT22;15921;52.034;20.650;2023-04-19T07:34:39;8.80;99.90
28767;DHT22;15921;52.034;20.650;2023-04-19T07:37:06;8.80;99.90
28767;DHT22;15921;52.034;20.650;2023-04-19T07:39:32;9.00;99.90
28767;DHT22;15921;52.034;20.650;2023-04-19T07:41:57;9.10;99.90
28767;DHT22;15921;52.034;20.650;2023-04-19T07:44:23;9.20;99.90
28767;DHT22;15921;52.034;20.650;2023-04-19T07:46:49;9.20;99.90
28767;DHT22;15921;52.034;20.650;2023-04-19T07:49:15;9.30;99.90
28767;DHT22;15921;52.034;20.650;2023-04-19T07:51:40;9.40;99.90
28767;DHT22;15921;52.034;20.650;2023-04-19T07:54:06;9.50;99.90
28767;DHT22;15921;52.034;20.650;2023-04-19T07:56:32;9.50;99.90
28767;DHT22;15921;52.034;20.650;2023-04-19T07:58:59;9.50;99.90
28767;DHT22;15921;52.034;20.650;2023-04-19T08:01:24;9.60;99.90
28767;DHT22;15921;52.034;20.650;2023-04-19T08:03:50;9.60;99.90
28767;DHT22;15921;52.034;20.650;2023-04-19T08:06:16;9.60;99.90
28767;DHT22;15921;52.034;20.650;2023-04-19T08:08:46;9.70;99.90
28767;DHT22;15921;52.034;20.650;2023-04-19T08:11:12;9.80;99.90
28767;DHT22;15921;52.034;20.650;2023-04-19T08:13:37;9.80;99.90
28767;DHT22;15921;52.034;20.650;2023-04-19T08:16:03;9.80;99.90
28767;DHT22;15921;52.034;20.650;2023-04-19T08:18:30;9.80;99.90
28767;DHT22;15921;52.034;20.650;2023-04-19T08:20:56;9.70;99.90
28767;DHT22;15921;52.034;20.650;2023-04-19T08:23:22;9.70;99.90
28767;DHT22;15921;52.034;20.650;2023-04-19T08:25:48;9.60;99.90
28767;DHT22;15921;52.034;20.650;2023-04-19T08:28:13;9.60;99.90
28767;DHT22;15921;52.034;20.650;2023-04-19T08:30:39;9.60;99.90
28767;DHT22;15921;52.034;20.650;2023-04-19T08:33:05;9.70;99.90
28767;DHT22;15921;52.034;20.650;2023-04-19T08:35:33;9.70;99.90
28767;DHT22;15921;52.034;20.650;2023-04-19T08:37:58;9.60;99.90
28767;DHT22;15921;52.034;20.650;2023-04-19T08:40:24;9.60;99.90
28767;DHT22;15921;52.034;20.650;2023-04-19T08:42:50;9.70;99.90
28767;DHT22;15921;52.034;20.650;2023-04-19T08:45:16;9.70;99.90
28767;DHT22;15921;52.034;20.650;2023-04-19T08:47:42;9.70;99.90
28767;DHT22;15921;52.034;20.650;2023-04-19T08:50:09;9.80;99.90
28767;DHT22;15921;52.034;20.650;2023-04-19T08:52:36;9.80;99.90
28767;DHT22;15921;52.034;20.650;2023-04-19T08:55:06;9.80;99.90
28767;DHT22;15921;52.034;20.650;2023-04-19T08:57:34;9.90;99.90
28767;DHT22;15921;52.034;20.650;2023-04-19T09:00:01;10.00;99.90
28767;DHT22;15921;52.034;20.650;2023-04-19T09:02:27;10.20;99.90
28767;DHT22;15921;52.034;20.650;2023-04-19T09:04:52;10.40;99.90
28767;DHT22;15921;52.034;20.650;2023-04-19T09:07:25;10.60;99.90
28767;DHT22;15921;52.034;20.650;2023-04-19T09:10:24;10.80;99.90
28767;DHT22;15921;52.034;20.650;2023-04-19T09:13:04;10.90;99.90
28767;DHT22;15921;52.034;20.650;2023-04-19T09:15:40;11.00;99.90
28767;DHT22;15921;52.034;20.650;2023-04-19T09:18:08;11.20;99.90
28767;DHT22;15921;52.034;20.650;2023-04-19T09:20:42;11.30;99.90
28767;DHT22;15921;52.034;20.650;2023-04-19T09:23:11;11.50;99.90
28767;DHT22;15921;52.034;20.650;2023-04-19T09:25:38;11.80;99.90
28767;DHT22;15921;52.034;20.650;2023-04-19T09:28:10;12.20;99.90
28767;DHT22;15921;52.034;20.650;2023-04-19T09:30:37;12.50;99.90
28767;DHT22;15921;52.034;20.650;2023-04-19T09:33:03;12.70;99.90
28767;DHT22;15921;52.034;20.650;2023-04-19T09:35:42;12.80;99.90
28767;DHT22;15921;52.034;20.650;2023-04-19T09:38:10;12.80;99.90
28767;DHT22;15921;52.034;20.650;2023-04-19T09:40:36;12.70;99.90
28767;DHT22;15921;52.034;20.650;2023-04-19T09:43:02;12.70;99.90
28767;DHT22;15921;52.034;20.650;2023-04-19T09:45:44;12.90;99.90
28767;DHT22;15921;52.034;20.650;2023-04-19T09:48:11;13.40;99.90
28767;DHT22;15921;52.034;20.650;2023-04-19T09:50:56;13.70;99.90
28767;DHT22;15921;52.034;20.650;2023-04-19T09:53:23;13.70;99.90
28767;DHT22;15921;52.034;20.650;2023-04-19T09:55:49;13.50;99.90
28767;DHT22;15921;52.034;20.650;2023-04-19T09:58:15;13.30;99.90
28767;DHT22;15921;52.034;20.650;2023-04-19T10:00:43;12.90;99.90
28767;DHT22;15921;52.034;20.650;2023-04-19T10:03:09;12.60;99.90
28767;DHT22;15921;52.034;20.650;2023-04-19T10:05:40;12.40;99.90
28767;DHT22;15921;52.034;20.650;2023-04-19T10:08:07;12.40;99.90
28767;DHT22;15921;52.034;20.650;2023-04-19T10:10:33;12.40;99.90
28767;DHT22;15921;52.034;20.650;2023-04-19T10:13:02;12.40;99.90
28767;DHT22;15921;52.034;20.650;2023-04-19T10:15:29;12.40;99.90
28767;DHT22;15921;52.034;20.650;2023-04-19T10:17:56;12.40;99.90
28767;DHT22;15921;52.034;20.650;2023-04-19T10:20:31;12.50;99.90
28767;DHT22;15921;52.034;20.650;2023-04-19T10:22:59;12.50;99.90
28767;DHT22;15921;52.034;20.650;2023-04-19T10:25:29;12.50;99.90
28767;DHT22;15921;52.034;20.650;2023-04-19T10:27:55;12.60;99.90
28767;DHT22;15921;52.034;20.650;2023-04-19T10:30:22;12.80;99.90
28767;DHT22;15921;52.034;20.650;2023-04-19T10:32:55;12.90;99.90
28767;DHT22;15921;52.034;20.650;2023-04-19T10:35:23;12.90;99.90
28767;DHT22;15921;52.034;20.650;2023-04-19T10:38:08;13.00;99.90
28767;DHT22;15921;52.034;20.650;2023-04-19T10:43:19;13.30;99.90
28767;DHT22;15921;52.034;20.650;2023-04-19T10:45:46;13.50;99.90
28767;DHT22;15921;52.034;20.650;2023-04-19T10:53:47;13.10;99.90
28767;DHT22;15921;52.034;20.650;2023-04-19T10:56:17;12.90;99.90
28767;DHT22;15921;52.034;20.650;2023-04-19T11:01:38;12.70;99.90
28767;DHT22;15921;52.034;20.650;2023-04-19T11:04:15;12.60;99.90
28767;DHT22;15921;52.034;20.650;2023-04-19T11:12:06;12.50;99.90
28767;DHT22;15921;52.034;20.650;2023-04-19T11:14:51;12.50;99.90
28767;DHT22;15921;52.034;20.650;2023-04-19T11:17:28;12.40;99.90
28767;DHT22;15921;52.034;20.650;2023-04-19T11:20:00;12.40;99.90
28767;DHT22;15921;52.034;20.650;2023-04-19T11:25:08;12.20;99.90
28767;DHT22;15921;52.034;20.650;2023-04-19T11:27:34;12.10;99.90
28767;DHT22;15921;52.034;20.650;2023-04-19T11:30:07;12.20;99.90
28767;DHT22;15921;52.034;20.650;2023-04-19T11:32:33;12.10;99.90
28767;DHT22;15921;52.034;20.650;2023-04-19T11:35:08;12.10;99.90
28767;DHT22;15921;52.034;20.650;2023-04-19T11:37:35;12.00;99.90
28767;DHT22;15921;52.034;20.650;2023-04-19T11:40:01;12.00;99.90
28767;DHT22;15921;52.034;20.650;2023-04-19T11:42:27;12.00;99.90
28767;DHT22;15921;52.034;20.650;2023-04-19T11:44:53;12.30;99.90
28767;DHT22;15921;52.034;20.650;2023-04-19T11:47:22;12.60;99.90
28767;DHT22;15921;52.034;20.650;2023-04-19T11:49:47;13.00;99.90
28767;DHT22;15921;52.034;20.650;2023-04-19T11:52:25;13.50;99.90
28767;DHT22;15921;52.034;20.650;2023-04-19T11:54:51;14.20;99.90
28767;DHT22;15921;52.034;20.650;2023-04-19T11:57:28;15.10;99.90
28767;DHT22;15921;52.034;20.650;2023-04-19T12:00:08;15.80;99.90
28767;DHT22;15921;52.034;20.650;2023-04-19T12:02:38;16.50;99.90
28767;DHT22;15921;52.034;20.650;2023-04-19T12:05:12;17.00;99.90
28767;DHT22;15921;52.034;20.650;2023-04-19T12:08:00;17.50;99.10
28767;DHT22;15921;52.034;20.650;2023-04-19T12:10:26;17.90;96.80
28767;DHT22;15921;52.034;20.650;2023-04-19T12:12:52;18.00;95.50
28767;DHT22;15921;52.034;20.650;2023-04-19T12:15:18;18.20;94.10
28767;DHT22;15921;52.034;20.650;2023-04-19T12:18:00;18.00;92.90
28767;DHT22;15921;52.034;20.650;2023-04-19T12:20:29;17.80;92.60
28767;DHT22;15921;52.034;20.650;2023-04-19T12:22:55;17.50;91.20
28767;DHT22;15921;52.034;20.650;2023-04-19T12:25:21;17.10;94.20
28767;DHT22;15921;52.034;20.650;2023-04-19T12:27:46;16.90;95.20
28767;DHT22;15921;52.034;20.650;2023-04-19T12:30:12;16.60;95.00
28767;DHT22;15921;52.034;20.650;2023-04-19T12:32:38;16.40;95.40
28767;DHT22;15921;52.034;20.650;2023-04-19T12:35:04;16.20;96.10
28767;DHT22;15921;52.034;20.650;2023-04-19T12:37:29;16.20;96.70
28767;DHT22;15921;52.034;20.650;2023-04-19T12:39:55;16.20;97.40
28767;DHT22;15921;52.034;20.650;2023-04-19T12:42:21;16.30;97.60
28767;DHT22;15921;52.034;20.650;2023-04-19T12:44:46;16.20;97.30
28767;DHT22;15921;52.034;20.650;2023-04-19T12:47:12;16.00;96.90
28767;DHT22;15921;52.034;20.650;2023-04-19T12:49:38;15.60;97.20
28767;DHT22;15921;52.034;20.650;2023-04-19T12:52:05;15.50;98.20
28767;DHT22;15921;52.034;20.650;2023-04-19T12:54:31;15.30;99.60
28767;DHT22;15921;52.034;20.650;2023-04-19T12:56:56;15.10;99.90
28767;DHT22;15921;52.034;20.650;2023-04-19T12:59:22;14.90;99.90
28767;DHT22;15921;52.034;20.650;2023-04-19T13:01:48;14.70;99.90
28767;DHT22;15921;52.034;20.650;2023-04-19T13:04:14;14.50;99.90
28767;DHT22;15921;52.034;20.650;2023-04-19T13:06:39;14.40;99.90
28767;DHT22;15921;52.034;20.650;2023-04-19T13:09:05;14.20;99.90
28767;DHT22;15921;52.034;20.650;2023-04-19T13:11:31;14.20;99.90
28767;DHT22;15921;52.034;20.650;2023-04-19T13:13:57;14.20;99.90
28767;DHT22;15921;52.034;20.650;2023-04-19T13:16:22;14.40;99.90
28767;DHT22;15921;52.034;20.650;2023-04-19T13:18:49;14.70;99.90
28767;DHT22;15921;52.034;20.650;2023-04-19T13:21:16;14.80;99.90
28767;DHT22;15921;52.034;20.650;2023-04-19T13:23:43;15.00;99.90
28767;DHT22;15921;52.034;20.650;2023-04-19T13:26:09;15.00;99.90
28767;DHT22;15921;52.034;20.650;2023-04-19T13:28:35;15.10;99.90
28767;DHT22;15921;52.034;20.650;2023-04-19T13:31:02;15.00;99.90
28767;DHT22;15921;52.034;20.650;2023-04-19T13:33:28;15.00;99.90
28767;DHT22;15921;52.034;20.650;2023-04-19T13:35:53;15.00;99.90
28767;DHT22;15921;52.034;20.650;2023-04-19T13:38:19;15.00;99.90
28767;DHT22;15921;52.034;20.650;2023-04-19T13:40:45;15.00;99.90
28767;DHT22;15921;52.034;20.650;2023-04-19T13:43:10;14.90;99.90
28767;DHT22;15921;52.034;20.650;2023-04-19T13:45:36;14.80;99.90
28767;DHT22;15921;52.034;20.650;2023-04-19T13:48:02;14.70;99.90
28767;DHT22;15921;52.034;20.650;2023-04-19T13:50:28;14.70;99.90
28767;DHT22;15921;52.034;20.650;2023-04-19T13:52:54;14.50;99.90
28767;DHT22;15921;52.034;20.650;2023-04-19T13:55:19;14.40;99.90
28767;DHT22;15921;52.034;20.650;2023-04-19T13:57:45;14.20;99.90
28767;DHT22;15921;52.034;20.650;2023-04-19T14:00:11;14.10;99.90
28767;DHT22;15921;52.034;20.650;2023-04-19T14:02:37;14.00;99.90
28767;DHT22;15921;52.034;20.650;2023-04-19T14:05:03;14.00;99.90
28767;DHT22;15921;52.034;20.650;2023-04-19T14:07:29;13.90;99.90
28767;DHT22;15921;52.034;20.650;2023-04-19T14:09:55;13.80;99.90
28767;DHT22;15921;52.034;20.650;2023-04-19T14:12:20;13.90;99.90
28767;DHT22;15921;52.034;20.650;2023-04-19T14:14:46;14.00;99.90
28767;DHT22;15921;52.034;20.650;2023-04-19T14:17:11;14.20;99.90
28767;DHT22;15921;52.034;20.650;2023-04-19T14:19:37;14.30;99.90
28767;DHT22;15921;52.034;20.650;2023-04-19T14:22:03;14.30;99.90
28767;DHT22;15921;52.034;20.650;2023-04-19T14:24:28;14.40;99.90
28767;DHT22;15921;52.034;20.650;2023-04-19T14:26:54;14.50;99.90
28767;DHT22;15921;52.034;20.650;2023-04-19T14:29:20;14.60;99.90
28767;DHT22;15921;52.034;20.650;2023-04-19T14:31:45;14.50;99.90
28767;DHT22;15921;52.034;20.650;2023-04-19T14:34:11;14.60;99.90
28767;DHT22;15921;52.034;20.650;2023-04-19T14:36:37;14.60;99.90
28767;DHT22;15921;52.034;20.650;2023-04-19T14:39:02;14.70;99.90
28767;DHT22;15921;52.034;20.650;2023-04-19T14:41:28;14.70;99.90
28767;DHT22;15921;52.034;20.650;2023-04-19T14:43:54;14.70;99.90
28767;DHT22;15921;52.034;20.650;2023-04-19T14:46:20;14.80;99.90
28767;DHT22;15921;52.034;20.650;2023-04-19T14:48:46;15.10;99.90
28767;DHT22;15921;52.034;20.650;2023-04-19T14:51:11;15.50;99.90
28767;DHT22;15921;52.034;20.650;2023-04-19T14:53:37;15.90;99.90
28767;DHT22;15921;52.034;20.650;2023-04-19T14:56:04;16.20;99.90
28767;DHT22;15921;52.034;20.650;2023-04-19T14:58:30;17.60;97.90
28767;DHT22;15921;52.034;20.650;2023-04-19T15:00:57;18.10;94.30
28767;DHT22;15921;52.034;20.650;2023-04-19T15:03:22;17.90;93.00
28767;DHT22;15921;52.034;20.650;2023-04-19T15:05:48;17.40;93.00
28767;DHT22;15921;52.034;20.650;2023-04-19T15:08:13;17.10;93.40
28767;DHT22;15921;52.034;20.650;2023-04-19T15:10:39;16.70;93.90
28767;DHT22;15921;52.034;20.650;2023-04-19T15:13:05;16.60;94.30
28767;DHT22;15921;52.034;20.650;2023-04-19T15:15:30;16.80;94.20
28767;DHT22;15921;52.034;20.650;2023-04-19T15:17:56;17.10;94.00
28767;DHT22;15921;52.034;20.650;2023-04-19T15:20:22;19.70;90.10
28767;DHT22;15921;52.034;20.650;2023-04-19T15:22:47;21.60;81.70
28767;DHT22;15921;52.034;20.650;2023-04-19T15:25:13;23.10;75.50
28767;DHT22;15921;52.034;20.650;2023-04-19T15:27:39;24.50;69.80
28767;DHT22;15921;52.034;20.650;2023-04-19T15:30:05;26.00;64.10
28767;DHT22;15921;52.034;20.650;2023-04-19T15:32:31;27.40;59.50
28767;DHT22;15921;52.034;20.650;2023-04-19T15:35:00;28.20;56.40
28767;DHT22;15921;52.034;20.650;2023-04-19T15:37:26;29.00;55.00
28767;DHT22;15921;52.034;20.650;2023-04-19T15:39:52;29.50;53.00
28767;DHT22;15921;52.034;20.650;2023-04-19T15:42:17;30.00;51.60